createdAt,value
2018-12-21T00:00:20.333Z,6.20
2018-12-21T00:02:48.660Z,6.20
2018-12-21T00:05:16.940Z,6.20
2018-12-21T00:07:45.173Z,6.20
2018-12-21T00:10:13.441Z,6.20
2018-12-21T00:12:41.672Z,6.20
2018-12-21T00:15:09.906Z,6.20
2018-12-21T00:17:38.136Z,6.20
2018-12-21T00:20:08.159Z,6.20
2018-12-21T00:22:36.303Z,6.20
2018-12-21T00:25:04.950Z,6.10
2018-12-21T00:27:33.533Z,6.20
2018-12-21T00:30:02.024Z,6.10
2018-12-21T00:32:35.745Z,6.10
2018-12-21T00:35:09.578Z,6.10
2018-12-21T00:37:43.202Z,6.10
2018-12-21T00:40:16.992Z,6.10
2018-12-21T00:42:50.569Z,6.10
2018-12-21T00:45:23.215Z,6.00
2018-12-21T00:47:51.559Z,6.00
2018-12-21T00:50:19.815Z,6.10
2018-12-21T00:52:48.073Z,6.10
2018-12-21T00:55:16.351Z,6.10
2018-12-21T00:57:44.602Z,6.10
2018-12-21T01:00:15.282Z,6.10
2018-12-21T01:02:43.514Z,6.20
2018-12-21T01:05:11.727Z,6.20
2018-12-21T01:07:39.935Z,6.20
2018-12-21T01:10:09.153Z,6.20
2018-12-21T01:12:37.377Z,6.20
2018-12-21T01:15:05.951Z,6.20
2018-12-21T01:17:34.218Z,6.20
2018-12-21T01:20:02.491Z,6.20
2018-12-21T01:22:30.757Z,6.20
2018-12-21T01:24:58.917Z,6.20
2018-12-21T01:27:27.146Z,6.20
2018-12-21T01:29:55.391Z,6.20
2018-12-21T01:32:23.578Z,6.30
2018-12-21T01:34:51.778Z,6.30
2018-12-21T01:37:19.943Z,6.30
2018-12-21T01:39:48.240Z,6.30
2018-12-21T01:42:16.437Z,6.30
2018-12-21T01:44:44.670Z,6.30
2018-12-21T01:47:12.971Z,6.30
2018-12-21T01:49:41.190Z,6.30
2018-12-21T01:52:09.439Z,6.30
2018-12-21T01:54:37.664Z,6.40
2018-12-21T01:57:05.887Z,6.40
2018-12-21T01:59:34.153Z,6.40
2018-12-21T02:02:02.395Z,6.40
2018-12-21T02:04:30.578Z,6.40
2018-12-21T02:06:58.848Z,6.40
2018-12-21T02:09:31.452Z,6.40
2018-12-21T02:11:59.767Z,6.40
2018-12-21T02:14:27.952Z,6.40
2018-12-21T02:16:56.200Z,6.40
2018-12-21T02:19:24.423Z,6.50
2018-12-21T02:21:56.026Z,6.50
2018-12-21T02:24:23.055Z,6.50
2018-12-21T02:26:51.356Z,6.50
2018-12-21T02:29:19.578Z,6.50
2018-12-21T02:31:47.809Z,6.50
2018-12-21T02:34:15.955Z,6.50
2018-12-21T02:36:44.123Z,6.60
2018-12-21T02:39:12.499Z,6.50
2018-12-21T02:41:40.747Z,6.50
2018-12-21T02:44:08.991Z,6.60
2018-12-21T02:46:37.238Z,6.60
2018-12-21T02:49:05.450Z,6.60
2018-12-21T02:51:33.649Z,6.60
2018-12-21T02:54:02.038Z,6.60
2018-12-21T02:56:30.325Z,6.50
2018-12-21T02:58:58.641Z,6.50
2018-12-21T03:01:26.860Z,6.50
2018-12-21T03:03:55.127Z,6.50
2018-12-21T03:06:23.339Z,6.50
2018-12-21T03:08:51.655Z,6.40
2018-12-21T03:11:19.941Z,6.40
2018-12-21T03:13:48.200Z,6.40
2018-12-21T03:16:16.447Z,6.40
2018-12-21T03:18:44.719Z,6.40
2018-12-21T03:21:12.987Z,6.40
2018-12-21T03:23:41.242Z,6.30
2018-12-21T03:26:09.503Z,6.30
2018-12-21T03:28:37.714Z,6.30
2018-12-21T03:31:05.976Z,6.30
2018-12-21T03:33:34.217Z,6.30
2018-12-21T03:36:02.522Z,6.30
2018-12-21T03:38:30.764Z,6.40
2018-12-21T03:40:59.048Z,6.40
2018-12-21T03:43:27.339Z,6.40
2018-12-21T03:45:55.539Z,6.40
2018-12-21T03:48:23.755Z,6.50
2018-12-21T03:50:52.053Z,6.40
2018-12-21T03:53:20.322Z,6.40
2018-12-21T03:55:48.516Z,6.40
2018-12-21T03:58:16.724Z,6.40
2018-12-21T04:00:44.948Z,6.40
2018-12-21T04:03:13.168Z,6.40
2018-12-21T04:05:41.507Z,6.40
2018-12-21T04:08:09.660Z,6.40
2018-12-21T04:10:37.855Z,6.30
2018-12-21T04:13:06.145Z,6.30
2018-12-21T04:15:34.501Z,6.40
2018-12-21T04:18:02.785Z,6.40
2018-12-21T04:20:30.910Z,6.40
2018-12-21T04:22:59.113Z,6.40
2018-12-21T04:25:27.229Z,6.30
2018-12-21T04:27:55.401Z,6.40
2018-12-21T04:30:23.622Z,6.40
2018-12-21T04:32:51.811Z,6.40
2018-12-21T04:35:20.012Z,6.30
2018-12-21T04:37:48.247Z,6.40
2018-12-21T04:40:16.509Z,6.40
2018-12-21T04:42:44.788Z,6.30
2018-12-21T04:45:13.310Z,6.40
2018-12-21T04:47:41.479Z,6.40
2018-12-21T04:50:09.706Z,6.30
2018-12-21T04:52:43.197Z,6.30
2018-12-21T04:55:08.219Z,6.30
2018-12-21T04:57:36.347Z,6.30
2018-12-21T05:00:04.856Z,6.30
2018-12-21T05:02:33.105Z,6.30
2018-12-21T05:05:01.363Z,6.30
2018-12-21T05:07:31.039Z,6.40
2018-12-21T05:09:59.314Z,6.40
2018-12-21T05:12:27.529Z,6.40
2018-12-21T05:14:55.784Z,6.40
2018-12-21T05:17:23.993Z,6.40
2018-12-21T05:19:52.196Z,6.40
2018-12-21T05:22:20.407Z,6.40
2018-12-21T05:24:48.665Z,6.40
2018-12-21T05:27:16.917Z,6.50
2018-12-21T05:29:45.201Z,6.50
2018-12-21T05:32:13.429Z,6.50
2018-12-21T05:34:41.604Z,6.50
2018-12-21T05:37:09.828Z,6.50
2018-12-21T05:39:38.013Z,6.40
2018-12-21T05:42:06.274Z,6.40
2018-12-21T05:44:34.412Z,6.40
2018-12-21T05:47:02.738Z,6.40
2018-12-21T05:49:30.969Z,6.30
2018-12-21T05:51:59.267Z,6.30
2018-12-21T05:54:27.515Z,6.30
2018-12-21T05:56:55.795Z,6.20
2018-12-21T05:59:24.042Z,6.20
2018-12-21T06:01:52.316Z,6.10
2018-12-21T06:04:20.567Z,6.10
2018-12-21T06:06:48.853Z,6.10
2018-12-21T06:09:17.127Z,6.10
2018-12-21T06:11:45.294Z,6.10
2018-12-21T06:14:13.593Z,6.10
2018-12-21T06:16:41.838Z,6.10
2018-12-21T06:19:12.280Z,6.00
2018-12-21T06:21:40.676Z,6.00
2018-12-21T06:24:08.866Z,6.00
2018-12-21T06:26:37.095Z,6.00
2018-12-21T06:29:05.432Z,6.00
2018-12-21T06:31:33.836Z,6.00
2018-12-21T06:34:01.933Z,6.00
2018-12-21T06:36:30.154Z,6.00
2018-12-21T06:38:58.393Z,6.10
2018-12-21T06:41:26.700Z,6.10
2018-12-21T06:43:54.967Z,6.10
2018-12-21T06:46:23.195Z,6.20
2018-12-21T06:48:52.422Z,6.20
2018-12-21T06:51:20.658Z,6.20
2018-12-21T06:53:48.914Z,6.20
2018-12-21T06:56:17.176Z,6.20
2018-12-21T06:58:45.414Z,6.20
2018-12-21T07:01:13.633Z,6.20
2018-12-21T07:03:41.806Z,6.10
2018-12-21T07:06:10.063Z,6.10
2018-12-21T07:08:38.298Z,6.20
2018-12-21T07:11:09.017Z,6.20
2018-12-21T07:13:37.237Z,6.10
2018-12-21T07:16:05.445Z,6.20
2018-12-21T07:18:33.533Z,6.20
2018-12-21T07:21:01.736Z,6.10
2018-12-21T07:23:29.932Z,6.10
2018-12-21T07:25:58.098Z,6.20
2018-12-21T07:28:26.334Z,6.10
2018-12-21T07:30:54.652Z,6.20
2018-12-21T07:33:22.807Z,6.20
2018-12-21T07:35:51.046Z,6.20
2018-12-21T07:38:19.299Z,6.20
2018-12-21T07:40:47.544Z,6.20
2018-12-21T07:43:15.754Z,6.20
2018-12-21T07:45:43.972Z,6.20
2018-12-21T07:48:12.327Z,6.20
2018-12-21T07:50:40.585Z,6.20
2018-12-21T07:53:08.803Z,6.30
2018-12-21T07:55:37.019Z,6.30
2018-12-21T07:58:05.351Z,6.20
2018-12-21T08:00:33.579Z,6.30
2018-12-21T08:03:01.891Z,6.30
2018-12-21T08:05:30.105Z,6.30
2018-12-21T08:07:58.310Z,6.40
2018-12-21T08:10:26.581Z,6.30
2018-12-21T08:12:54.810Z,6.40
2018-12-21T08:15:23.078Z,6.50
2018-12-21T08:17:51.407Z,6.50
2018-12-21T08:20:19.635Z,6.50
2018-12-21T08:22:47.779Z,6.60
2018-12-21T08:25:16.030Z,6.60
2018-12-21T08:27:44.300Z,6.70
2018-12-21T08:30:12.504Z,6.60
2018-12-21T08:32:40.724Z,6.70
2018-12-21T08:35:08.887Z,6.70
2018-12-21T08:37:37.167Z,6.80
2018-12-21T08:40:07.424Z,6.80
2018-12-21T08:42:35.724Z,6.80
2018-12-21T08:45:05.010Z,6.80
2018-12-21T08:47:33.263Z,6.90
2018-12-21T08:50:01.561Z,6.90
2018-12-21T08:52:29.912Z,6.90
2018-12-21T08:54:58.152Z,6.90
2018-12-21T08:57:26.358Z,6.90
2018-12-21T08:59:54.578Z,6.90
2018-12-21T09:02:22.813Z,7.00
2018-12-21T09:04:51.056Z,6.90
2018-12-21T09:07:19.215Z,7.00
2018-12-21T09:09:47.544Z,7.00
2018-12-21T09:12:15.756Z,7.00
2018-12-21T09:14:44.056Z,7.00
2018-12-21T09:17:12.339Z,7.10
2018-12-21T09:19:40.608Z,7.10
2018-12-21T09:22:08.863Z,7.10
2018-12-21T09:24:37.066Z,7.10
2018-12-21T09:27:05.282Z,7.20
2018-12-21T09:29:33.478Z,7.20
2018-12-21T09:32:05.167Z,7.20
2018-12-21T09:34:31.889Z,7.20
2018-12-21T09:37:00.034Z,7.20
2018-12-21T09:39:28.223Z,7.20
2018-12-21T09:41:56.500Z,7.20
2018-12-21T09:44:24.660Z,7.20
2018-12-21T09:46:52.848Z,7.20
2018-12-21T09:49:21.133Z,7.20
2018-12-21T09:51:49.364Z,7.30
2018-12-21T09:54:17.626Z,7.30
2018-12-21T09:56:45.866Z,7.30
2018-12-21T09:59:14.019Z,7.30
2018-12-21T10:01:42.247Z,7.30
2018-12-21T10:04:10.427Z,7.40
2018-12-21T10:06:38.644Z,7.40
2018-12-21T10:09:07.550Z,7.40
2018-12-21T10:11:35.784Z,7.40
2018-12-21T10:14:04.061Z,7.40
2018-12-21T10:16:32.429Z,7.40
2018-12-21T10:19:00.674Z,7.40
2018-12-21T10:21:28.887Z,7.40
2018-12-21T10:23:57.137Z,7.40
2018-12-21T10:26:25.344Z,7.30
2018-12-21T10:28:53.507Z,7.30
2018-12-21T10:31:22.033Z,7.30
2018-12-21T10:33:50.192Z,7.30
2018-12-21T10:36:18.488Z,7.30
2018-12-21T10:38:46.823Z,7.40
2018-12-21T10:41:15.193Z,7.30
2018-12-21T10:43:43.468Z,7.20
2018-12-21T10:46:12.545Z,7.10
2018-12-21T10:48:40.891Z,7.00
2018-12-21T10:51:09.453Z,6.90
2018-12-21T10:53:39.383Z,6.70
2018-12-21T10:56:08.094Z,6.50
2018-12-21T10:58:36.412Z,6.40
2018-12-21T11:01:05.495Z,6.40
2018-12-21T11:03:33.931Z,6.30
2018-12-21T11:06:02.288Z,6.30
2018-12-21T11:08:30.749Z,6.30
2018-12-21T11:10:59.048Z,6.30
2018-12-21T11:13:28.537Z,6.20
2018-12-21T11:15:56.950Z,6.20
2018-12-21T11:18:25.379Z,6.20
2018-12-21T11:20:53.688Z,6.20
2018-12-21T11:23:22.029Z,6.30
2018-12-21T11:25:50.454Z,6.30
2018-12-21T11:28:25.331Z,6.20
2018-12-21T11:30:49.807Z,6.30
2018-12-21T11:33:18.157Z,6.20
2018-12-21T11:35:46.697Z,6.20
2018-12-21T11:38:14.960Z,6.20
2018-12-21T11:40:43.161Z,6.20
2018-12-21T11:43:11.475Z,6.20
2018-12-21T11:45:39.791Z,6.20
2018-12-21T11:48:09.025Z,6.20
2018-12-21T11:50:37.587Z,6.20
2018-12-21T11:53:07.610Z,6.20
2018-12-21T11:55:35.903Z,6.20
2018-12-21T11:58:10.880Z,6.20
2018-12-21T12:00:39.121Z,6.10
2018-12-21T12:03:08.598Z,6.10
2018-12-21T12:05:37.231Z,6.10
2018-12-21T12:08:05.628Z,6.00
2018-12-21T12:10:34.001Z,6.00
2018-12-21T12:13:02.896Z,6.10
2018-12-21T12:15:31.219Z,6.10
2018-12-21T12:17:59.438Z,6.10
2018-12-21T12:20:27.782Z,6.00
2018-12-21T12:22:56.135Z,6.00
2018-12-21T12:25:24.455Z,6.00
2018-12-21T12:27:52.800Z,6.00
2018-12-21T12:30:21.148Z,6.00
2018-12-21T12:32:49.526Z,6.00
2018-12-21T12:35:17.889Z,5.90
2018-12-21T12:37:47.460Z,5.90
2018-12-21T12:40:15.808Z,5.90
2018-12-21T12:42:44.167Z,5.90
2018-12-21T12:45:13.984Z,5.90
2018-12-21T12:47:42.332Z,5.80
2018-12-21T12:50:11.298Z,5.90
2018-12-21T12:52:39.637Z,5.90
2018-12-21T12:55:07.913Z,5.80
2018-12-21T12:57:36.298Z,5.80
2018-12-21T13:00:06.075Z,5.80
2018-12-21T13:02:34.415Z,5.80
2018-12-21T13:05:02.790Z,5.80
2018-12-21T13:07:36.935Z,5.80
2018-12-21T13:10:07.972Z,5.80
2018-12-21T13:12:36.921Z,5.70
2018-12-21T13:15:08.003Z,5.70
2018-12-21T13:17:36.502Z,5.70
2018-12-21T13:20:05.832Z,5.70
2018-12-21T13:22:36.796Z,5.70
2018-12-21T13:25:11.340Z,5.70
2018-12-21T13:27:35.973Z,5.60
2018-12-21T13:30:08.280Z,5.60
2018-12-21T13:32:36.472Z,5.60
2018-12-21T13:35:05.172Z,5.60
2018-12-21T13:37:33.369Z,5.60
2018-12-21T13:40:01.742Z,5.60
2018-12-21T13:42:29.974Z,5.60
2018-12-21T13:44:58.215Z,5.60
2018-12-21T13:47:26.441Z,5.60
2018-12-21T13:49:54.696Z,5.60
2018-12-21T13:52:22.967Z,5.60
2018-12-21T13:54:51.278Z,5.60
2018-12-21T13:57:19.521Z,5.60
2018-12-21T13:59:47.927Z,5.60
2018-12-21T14:02:16.171Z,5.60
2018-12-21T14:04:44.319Z,5.60
2018-12-21T14:07:12.546Z,5.50
2018-12-21T14:09:40.806Z,5.50
2018-12-21T14:12:09.023Z,5.50
2018-12-21T14:14:37.264Z,5.40
2018-12-21T14:17:05.526Z,5.40
2018-12-21T14:19:33.699Z,5.40
2018-12-21T14:22:02.030Z,5.40
2018-12-21T14:24:30.335Z,5.40
2018-12-21T14:26:58.598Z,5.50
2018-12-21T14:29:28.571Z,5.50
2018-12-21T14:32:16.257Z,5.40
2018-12-21T14:34:44.894Z,5.50
2018-12-21T14:37:13.564Z,5.50
2018-12-21T14:39:42.143Z,5.50
2018-12-21T14:42:10.541Z,5.50
2018-12-21T14:44:38.770Z,5.50
2018-12-21T14:47:07.074Z,5.60
2018-12-21T14:49:35.349Z,5.50
2018-12-21T14:52:04.098Z,5.60
2018-12-21T14:54:33.193Z,5.60
2018-12-21T14:57:01.528Z,5.60
2018-12-21T14:59:29.984Z,5.60
2018-12-21T15:01:58.505Z,5.60
2018-12-21T15:04:26.898Z,5.60
2018-12-21T15:06:56.158Z,5.70
2018-12-21T15:09:24.556Z,5.70
2018-12-21T15:11:53.400Z,5.70
2018-12-21T15:14:21.645Z,5.70
2018-12-21T15:16:50.428Z,5.80
2018-12-21T15:19:18.720Z,5.80
2018-12-21T15:21:49.040Z,5.80
2018-12-21T15:27:04.800Z,5.90
2018-12-21T15:29:34.765Z,5.90
2018-12-21T15:34:47.003Z,6.00
2018-12-21T15:37:15.752Z,6.00
2018-12-21T15:39:44.223Z,6.00
2018-12-21T15:42:13.165Z,6.00
2018-12-21T15:44:41.529Z,6.00
2018-12-21T15:47:10.144Z,6.00
2018-12-21T15:49:38.535Z,6.00
2018-12-21T15:52:07.120Z,6.00
2018-12-21T15:54:35.527Z,6.10
2018-12-21T15:57:04.259Z,6.10
2018-12-21T15:59:32.806Z,6.20
2018-12-21T16:02:03.695Z,6.20
2018-12-21T16:04:34.347Z,6.30
2018-12-21T16:07:03.156Z,6.30
2018-12-21T16:09:31.744Z,6.40
2018-12-21T16:12:00.459Z,6.50
2018-12-21T16:14:34.201Z,6.50
2018-12-21T16:16:59.348Z,6.50
2018-12-21T16:19:27.900Z,6.50
2018-12-21T16:21:58.250Z,6.50
2018-12-21T16:24:26.672Z,6.60
2018-12-21T16:26:55.365Z,6.60
2018-12-21T16:29:23.827Z,6.70
2018-12-21T16:31:52.116Z,6.80
2018-12-21T16:34:20.698Z,6.90
2018-12-21T16:36:49.028Z,7.00
2018-12-21T16:39:18.260Z,7.00
2018-12-21T16:41:46.696Z,7.10
2018-12-21T16:44:14.931Z,7.20
2018-12-21T16:46:43.310Z,7.20
2018-12-21T16:49:11.575Z,7.30
2018-12-21T16:51:39.895Z,7.30
2018-12-21T16:54:08.268Z,7.40
2018-12-21T16:56:36.639Z,7.60
2018-12-21T16:59:04.914Z,7.70
2018-12-21T17:01:33.270Z,7.90
2018-12-21T17:04:01.646Z,8.00
2018-12-21T17:06:30.199Z,8.20
2018-12-21T17:08:58.431Z,8.50
2018-12-21T17:11:26.880Z,8.60
2018-12-21T17:13:55.174Z,8.50
2018-12-21T17:16:23.526Z,8.40
2018-12-21T17:18:52.076Z,8.30
2018-12-21T17:21:20.365Z,8.30
2018-12-21T17:23:48.623Z,8.20
2018-12-21T17:26:21.168Z,8.20
2018-12-21T17:28:47.266Z,8.20
2018-12-21T17:31:15.540Z,8.10
2018-12-21T17:33:44.024Z,8.10
2018-12-21T17:36:12.425Z,8.10
2018-12-21T17:38:40.707Z,8.10
2018-12-21T17:41:08.948Z,8.20
2018-12-21T17:43:37.303Z,8.20
2018-12-21T17:46:05.726Z,8.20
2018-12-21T17:48:34.371Z,8.30
2018-12-21T17:51:02.591Z,8.40
2018-12-21T17:53:31.007Z,8.50
2018-12-21T17:55:59.478Z,8.60
2018-12-21T17:58:27.855Z,8.80
2018-12-21T18:00:56.112Z,9.00
2018-12-21T18:03:37.587Z,9.30
2018-12-21T18:06:05.960Z,9.30
2018-12-21T18:08:34.135Z,9.30
2018-12-21T18:11:03.984Z,9.50
2018-12-21T18:13:36.234Z,9.60
2018-12-21T18:16:04.648Z,9.70
2018-12-21T18:18:32.986Z,9.90
2018-12-21T18:21:04.501Z,9.80
2018-12-21T18:23:36.861Z,9.80
2018-12-21T18:26:05.294Z,9.80
2018-12-21T18:28:34.533Z,9.80
2018-12-21T18:31:33.899Z,9.80
2018-12-21T18:34:08.687Z,9.90
2018-12-21T18:36:37.615Z,9.80
2018-12-21T18:39:15.959Z,10.00
2018-12-21T18:41:44.669Z,9.90
2018-12-21T18:44:13.041Z,10.00
2018-12-21T18:46:41.371Z,10.00
2018-12-21T18:49:09.754Z,10.00
2018-12-21T18:51:40.459Z,10.00
2018-12-21T18:54:08.997Z,10.20
2018-12-21T18:56:47.355Z,10.10
2018-12-21T18:59:15.974Z,10.10
2018-12-21T19:01:44.359Z,10.00
2018-12-21T19:04:12.779Z,10.10
2018-12-21T19:06:41.213Z,10.00
2018-12-21T19:09:09.590Z,10.10
2018-12-21T19:11:37.764Z,10.10
2018-12-21T19:14:06.323Z,10.20
2018-12-21T19:16:34.654Z,10.20
2018-12-21T19:19:03.092Z,10.20
2018-12-21T19:21:31.405Z,10.20
2018-12-21T19:23:59.798Z,10.20
2018-12-21T19:26:28.128Z,10.20
2018-12-21T19:28:56.472Z,10.10
2018-12-21T19:31:24.916Z,10.10
2018-12-21T19:33:53.306Z,10.10
2018-12-21T19:36:21.646Z,10.10
2018-12-21T19:38:49.996Z,10.00
2018-12-21T19:41:18.254Z,10.00
2018-12-21T19:43:46.550Z,10.00
2018-12-21T19:46:14.859Z,10.00
2018-12-21T19:48:43.177Z,10.10
2018-12-21T19:51:11.510Z,10.20
2018-12-21T19:53:39.836Z,10.10
2018-12-21T19:56:17.635Z,10.20
2018-12-21T19:58:46.005Z,10.20
2018-12-21T20:01:14.387Z,10.20
2018-12-21T20:03:42.638Z,10.20
2018-12-21T20:06:10.972Z,10.40
2018-12-21T20:08:39.491Z,10.40
2018-12-21T20:11:08.106Z,10.30
2018-12-21T20:13:36.423Z,10.30
2018-12-21T20:16:04.813Z,10.30
2018-12-21T20:18:33.078Z,10.30
2018-12-21T20:21:01.847Z,10.40
2018-12-21T20:23:30.369Z,10.60
2018-12-21T20:25:58.630Z,10.70
2018-12-21T20:28:26.972Z,10.70
2018-12-21T20:30:55.264Z,10.90
2018-12-21T20:33:23.620Z,11.00
2018-12-21T20:35:51.904Z,11.10
2018-12-21T20:38:21.444Z,11.10
2018-12-21T20:40:50.164Z,11.20
2018-12-21T20:43:18.574Z,11.20
2018-12-21T20:45:46.850Z,11.10
2018-12-21T20:48:15.224Z,11.10
2018-12-21T20:50:43.557Z,11.10
2018-12-21T20:53:11.770Z,11.00
2018-12-21T20:55:40.078Z,11.00
2018-12-21T20:58:16.237Z,11.00
2018-12-21T21:00:44.535Z,11.00
2018-12-21T21:03:12.858Z,10.90
2018-12-21T21:05:41.140Z,10.80
2018-12-21T21:08:09.336Z,10.90
2018-12-21T21:10:37.704Z,10.90
2018-12-21T21:13:05.963Z,10.90
2018-12-21T21:15:34.967Z,10.90
2018-12-21T21:18:03.236Z,11.00
2018-12-21T21:20:32.809Z,11.00
2018-12-21T21:23:01.092Z,10.90
2018-12-21T21:25:29.295Z,10.90
2018-12-21T21:27:57.524Z,10.90
2018-12-21T21:30:27.065Z,11.00
2018-12-21T21:32:55.280Z,10.90
2018-12-21T21:35:23.517Z,10.80
2018-12-21T21:37:51.783Z,10.90
2018-12-21T21:40:19.916Z,10.80
2018-12-21T21:42:57.203Z,10.70
2018-12-21T21:45:19.226Z,10.60
2018-12-21T21:47:47.370Z,10.60
2018-12-21T21:50:15.621Z,10.60
2018-12-21T21:52:43.952Z,10.50
2018-12-21T21:55:12.206Z,10.40
2018-12-21T21:57:40.608Z,10.30
2018-12-21T22:00:11.782Z,10.30
2018-12-21T22:02:40.099Z,10.30
2018-12-21T22:05:08.401Z,10.30
2018-12-21T22:07:36.776Z,10.30
2018-12-21T22:10:07.459Z,10.30
2018-12-21T22:12:35.727Z,10.30
2018-12-21T22:15:10.840Z,10.30
2018-12-21T22:17:39.151Z,10.30
2018-12-21T22:20:09.999Z,10.30
2018-12-21T22:22:38.229Z,10.40
2018-12-21T22:25:06.509Z,10.40
2018-12-21T22:27:34.681Z,10.40
2018-12-21T22:30:03.075Z,10.40
2018-12-21T22:32:31.279Z,10.30
2018-12-21T22:34:59.551Z,10.30
2018-12-21T22:37:27.811Z,10.30
2018-12-21T22:39:56.094Z,10.40
2018-12-21T22:42:24.338Z,10.40
2018-12-21T22:44:52.561Z,10.40
2018-12-21T22:47:20.855Z,10.40
2018-12-21T22:49:49.010Z,10.50
2018-12-21T22:52:17.305Z,10.50
2018-12-21T22:54:45.523Z,10.50
2018-12-21T22:57:13.837Z,10.40
2018-12-21T22:59:42.043Z,10.50
2018-12-21T23:02:10.251Z,10.50
2018-12-21T23:04:38.543Z,10.50
2018-12-21T23:07:06.691Z,10.50
2018-12-21T23:09:34.912Z,10.50
2018-12-21T23:12:03.229Z,10.60
2018-12-21T23:14:31.664Z,10.50
2018-12-21T23:16:59.883Z,10.50
2018-12-21T23:19:28.177Z,10.50
2018-12-21T23:21:56.416Z,10.60
2018-12-21T23:24:24.735Z,10.60
2018-12-21T23:26:52.919Z,10.60
2018-12-21T23:29:21.101Z,10.60
2018-12-21T23:31:49.342Z,10.60
2018-12-21T23:34:17.580Z,10.60
2018-12-21T23:36:45.750Z,10.60
2018-12-21T23:39:13.944Z,10.60
2018-12-21T23:41:42.130Z,10.60
2018-12-21T23:44:10.370Z,10.60
2018-12-21T23:46:38.607Z,10.60
2018-12-21T23:49:06.867Z,10.60
2018-12-21T23:51:35.144Z,10.50
2018-12-21T23:54:03.376Z,10.60
2018-12-21T23:56:31.647Z,10.60
2018-12-21T23:58:59.891Z,10.80
